createdAt,value
2018-09-29T00:03:08.146Z,9.30
2018-09-29T00:07:12.499Z,11.17
2018-09-29T00:11:17.060Z,12.77
2018-09-29T00:15:21.324Z,13.63
2018-09-29T00:19:25.507Z,13.20
2018-09-29T00:23:29.578Z,12.57
2018-09-29T00:27:33.990Z,13.07
2018-09-29T00:31:38.267Z,8.53
2018-09-29T00:35:43.512Z,12.97
2018-09-29T00:39:48.224Z,9.50
2018-09-29T00:43:52.524Z,9.37
2018-09-29T00:47:56.804Z,10.13
2018-09-29T00:52:01.153Z,12.00
2018-09-29T00:56:05.340Z,10.10
2018-09-29T01:00:09.504Z,9.47
2018-09-29T01:04:13.739Z,11.47
2018-09-29T01:08:18.961Z,6.93
2018-09-29T01:12:23.000Z,8.57
2018-09-29T01:16:27.075Z,9.17
2018-09-29T01:20:31.143Z,12.07
2018-09-29T01:24:35.216Z,12.70
2018-09-29T01:28:39.518Z,10.07
2018-09-29T01:32:44.774Z,14.37
2018-09-29T01:36:49.166Z,6.93
2018-09-29T01:40:53.219Z,10.03
2018-09-29T01:44:57.314Z,10.30
2018-09-29T01:49:01.497Z,10.33
2018-09-29T01:53:05.598Z,14.37
2018-09-29T01:57:09.841Z,10.47
2018-09-29T02:01:14.404Z,11.77
2018-09-29T02:05:18.664Z,14.93
2018-09-29T02:09:22.697Z,9.83
2018-09-29T02:13:26.884Z,14.37
2018-09-29T02:17:30.903Z,9.13
2018-09-29T02:21:35.254Z,10.63
2018-09-29T02:25:39.283Z,7.90
2018-09-29T02:29:43.793Z,10.10
2018-09-29T02:33:48.146Z,8.60
2018-09-29T02:37:52.215Z,7.87
2018-09-29T02:41:56.510Z,12.27
2018-09-29T02:46:00.647Z,12.63
2018-09-29T02:50:04.929Z,9.30
2018-09-29T02:54:09.024Z,7.33
2018-09-29T02:58:13.132Z,11.73
2018-09-29T03:02:17.279Z,12.53
2018-09-29T03:06:21.458Z,10.33
2018-09-29T03:10:25.535Z,9.30
2018-09-29T03:14:29.564Z,12.77
2018-09-29T03:18:33.581Z,10.67
2018-09-29T03:22:37.774Z,14.20
2018-09-29T03:26:43.082Z,17.07
2018-09-29T03:30:48.041Z,17.43
2018-09-29T03:34:52.287Z,9.87
2018-09-29T03:38:56.437Z,7.80
2018-09-29T03:43:00.552Z,9.47
2018-09-29T03:47:04.661Z,13.00
2018-09-29T03:51:08.868Z,10.83
2018-09-29T03:55:14.337Z,9.93
2018-09-29T03:59:18.698Z,9.30
2018-09-29T04:03:22.768Z,8.43
2018-09-29T04:07:27.220Z,14.43
2018-09-29T04:11:31.256Z,7.70
2018-09-29T04:15:35.413Z,13.43
2018-09-29T04:19:39.465Z,10.87
2018-09-29T04:23:44.084Z,8.53
2018-09-29T04:27:48.303Z,9.17
2018-09-29T04:31:52.430Z,6.90
2018-09-29T04:35:56.854Z,7.77
2018-09-29T04:40:01.215Z,7.50
2018-09-29T04:44:05.442Z,12.23
2018-09-29T04:48:10.541Z,12.40
2018-09-29T04:52:14.941Z,10.20
2018-09-29T04:56:19.915Z,8.07
2018-09-29T05:00:24.031Z,7.63
2018-09-29T05:04:28.259Z,8.13
2018-09-29T05:08:32.439Z,7.90
2018-09-29T05:12:36.482Z,7.07
2018-09-29T05:16:40.560Z,8.93
2018-09-29T05:20:45.920Z,11.30
2018-09-29T05:24:50.256Z,7.00
2018-09-29T05:28:54.368Z,10.93
2018-09-29T05:32:59.673Z,9.70
2018-09-29T05:37:03.686Z,11.40
2018-09-29T05:41:07.879Z,9.10
2018-09-29T05:45:15.790Z,11.33
2018-09-29T05:49:20.116Z,11.50
2018-09-29T05:53:24.358Z,10.23
2018-09-29T05:57:28.410Z,8.77
2018-09-29T06:01:32.554Z,8.77
2018-09-29T06:05:36.876Z,9.20
2018-09-29T06:09:41.815Z,10.40
2018-09-29T06:13:46.456Z,11.07
2018-09-29T06:17:50.869Z,13.00
2018-09-29T06:21:54.947Z,7.90
2018-09-29T06:25:59.502Z,11.37
2018-09-29T06:30:03.803Z,9.03
2018-09-29T06:34:07.970Z,10.23
2018-09-29T06:38:14.136Z,10.53
2018-09-29T06:42:18.440Z,12.70
2018-09-29T06:46:22.716Z,14.63
2018-09-29T06:50:26.772Z,8.23
2018-09-29T06:54:30.900Z,11.40
2018-09-29T06:58:35.067Z,11.10
2018-09-29T07:02:39.169Z,5.87
2018-09-29T07:06:44.013Z,6.90
2018-09-29T07:10:48.321Z,14.73
2018-09-29T07:14:52.592Z,12.13
2018-09-29T07:18:56.691Z,9.00
2018-09-29T07:23:01.039Z,9.90
2018-09-29T07:27:06.992Z,9.80
2018-09-29T07:31:11.025Z,7.33
2018-09-29T07:35:15.207Z,6.87
2018-09-29T07:39:19.463Z,8.53
2018-09-29T07:43:23.739Z,7.93
2018-09-29T07:47:27.959Z,8.70
2018-09-29T07:51:32.207Z,5.67
2018-09-29T07:55:36.386Z,10.60
2018-09-29T07:59:40.591Z,6.90
2018-09-29T08:03:45.047Z,9.63
2018-09-29T08:07:49.326Z,7.83
2018-09-29T08:11:53.753Z,6.27
2018-09-29T08:15:57.803Z,10.53
2018-09-29T08:20:01.951Z,8.10
2018-09-29T08:24:06.283Z,8.30
2018-09-29T08:28:41.581Z,11.00
2018-09-29T08:32:45.856Z,9.73
2018-09-29T08:36:49.989Z,8.07
2018-09-29T08:40:54.176Z,9.00
2018-09-29T08:44:58.412Z,6.70
2018-09-29T08:49:02.597Z,7.30
2018-09-29T08:53:07.064Z,6.97
2018-09-29T08:57:11.330Z,4.83
2018-09-29T09:01:15.485Z,8.00
2018-09-29T09:05:19.595Z,6.17
2018-09-29T09:09:23.720Z,5.97
2018-09-29T09:13:27.924Z,7.93
2018-09-29T09:17:32.123Z,8.73
2018-09-29T09:21:36.501Z,7.07
2018-09-29T09:25:40.861Z,5.77
2018-09-29T09:29:45.117Z,6.77
2018-09-29T09:33:49.372Z,5.27
2018-09-29T09:37:53.464Z,7.07
2018-09-29T09:41:57.620Z,5.53
2018-09-29T09:46:01.835Z,6.40
2018-09-29T09:50:06.173Z,8.90
2018-09-29T09:54:10.426Z,4.87
2018-09-29T09:58:14.976Z,8.90
2018-09-29T10:02:24.590Z,7.83
2018-09-29T10:06:28.747Z,6.20
2018-09-29T10:10:34.213Z,7.37
2018-09-29T10:14:38.606Z,4.33
2018-09-29T10:18:42.698Z,8.13
2018-09-29T10:22:46.839Z,6.23
2018-09-29T10:26:51.139Z,7.10
2018-09-29T10:30:55.272Z,6.10
2018-09-29T10:34:59.459Z,7.80
2018-09-29T10:39:05.040Z,7.30
2018-09-29T10:43:09.505Z,5.40
2018-09-29T10:47:14.048Z,5.80
2018-09-29T10:51:18.536Z,7.80
2018-09-29T10:55:22.716Z,9.10
2018-09-29T10:59:26.835Z,6.93
2018-09-29T11:03:30.933Z,7.53
2018-09-29T11:07:35.295Z,5.30
2018-09-29T11:11:39.421Z,7.07
2018-09-29T11:15:43.595Z,6.83
2018-09-29T11:19:47.696Z,3.53
2018-09-29T11:23:51.808Z,4.20
2018-09-29T11:27:55.999Z,7.40
2018-09-29T11:31:59.968Z,7.13
2018-09-29T11:36:04.750Z,5.00
2018-09-29T11:40:09.420Z,3.97
2018-09-29T11:44:13.521Z,5.30
2018-09-29T11:48:17.625Z,6.03
2018-09-29T11:52:21.767Z,4.97
2018-09-29T11:56:26.095Z,6.33
2018-09-29T12:00:30.346Z,2.70
2018-09-29T12:04:34.980Z,5.80
2018-09-29T12:08:39.141Z,3.10
2018-09-29T12:12:43.571Z,4.00
2018-09-29T12:16:48.001Z,2.13
2018-09-29T12:20:52.559Z,4.03
2018-09-29T12:24:56.815Z,3.27
2018-09-29T12:29:00.888Z,6.47
2018-09-29T12:33:06.232Z,5.73
2018-09-29T12:37:10.645Z,5.27
2018-09-29T12:41:14.649Z,5.07
2018-09-29T12:45:19.021Z,3.23
2018-09-29T12:49:23.067Z,4.77
2018-09-29T12:53:27.242Z,4.17
2018-09-29T12:57:31.346Z,6.30
2018-09-29T13:01:35.599Z,8.00
2018-09-29T13:05:39.881Z,4.97
2018-09-29T13:09:44.007Z,5.37
2018-09-29T13:13:48.082Z,5.60
2018-09-29T13:17:52.295Z,5.20
2018-09-29T13:21:56.591Z,4.43
2018-09-29T13:26:00.796Z,5.50
2018-09-29T13:30:05.177Z,5.87
2018-09-29T13:34:09.794Z,5.67
2018-09-29T13:38:13.977Z,5.47
2018-09-29T13:42:18.351Z,5.00
2018-09-29T13:46:22.485Z,4.67
2018-09-29T13:50:26.771Z,4.87
2018-09-29T13:54:30.587Z,5.13
2018-09-29T13:58:35.491Z,6.40
2018-09-29T14:02:39.774Z,4.63
2018-09-29T14:06:43.588Z,9.63
2018-09-29T14:10:47.765Z,8.63
2018-09-29T14:14:51.694Z,5.20
2018-09-29T14:18:55.537Z,9.63
2018-09-29T14:22:59.234Z,8.50
2018-09-29T14:27:03.126Z,5.17
2018-09-29T14:31:07.032Z,4.57
2018-09-29T14:35:10.795Z,7.23
2018-09-29T14:39:14.554Z,8.07
2018-09-29T14:43:18.466Z,6.33
2018-09-29T14:47:22.302Z,6.43
2018-09-29T14:51:26.020Z,4.73
2018-09-29T14:55:29.816Z,6.67
2018-09-29T14:59:33.616Z,5.87
2018-09-29T15:03:37.729Z,6.73
2018-09-29T15:07:41.582Z,4.13
2018-09-29T15:11:45.413Z,5.57
2018-09-29T15:15:49.330Z,6.20
2018-09-29T15:19:54.020Z,5.37
2018-09-29T15:23:57.858Z,10.03
2018-09-29T15:28:01.627Z,7.97
2018-09-29T15:32:05.647Z,7.10
2018-09-29T15:36:09.895Z,7.43
2018-09-29T15:40:14.015Z,8.73
2018-09-29T15:44:17.686Z,5.80
2018-09-29T15:48:21.504Z,7.77
2018-09-29T15:52:25.390Z,9.57
2018-09-29T15:56:29.126Z,7.43
2018-09-29T16:00:32.992Z,7.40
2018-09-29T16:04:37.141Z,6.47
2018-09-29T16:08:41.021Z,6.47
2018-09-29T16:12:44.870Z,5.90
2018-09-29T16:16:48.877Z,8.30
2018-09-29T16:20:52.651Z,7.13
2018-09-29T16:24:56.359Z,6.10
2018-09-29T16:29:03.671Z,6.57
2018-09-29T16:33:07.849Z,8.60
2018-09-29T16:37:11.681Z,5.90
2018-09-29T16:41:15.711Z,8.00
2018-09-29T16:45:19.521Z,6.03
2018-09-29T16:49:23.520Z,9.33
2018-09-29T16:53:27.364Z,9.77
2018-09-29T16:57:31.248Z,5.53
2018-09-29T17:01:34.961Z,8.03
2018-09-29T17:05:39.687Z,5.80
2018-09-29T17:09:43.944Z,9.40
2018-09-29T17:13:47.918Z,6.53
2018-09-29T17:17:52.002Z,7.57
2018-09-29T17:21:56.706Z,7.47
2018-09-29T17:26:00.405Z,7.20
2018-09-29T17:30:04.242Z,6.73
2018-09-29T17:34:08.248Z,8.57
2018-09-29T17:38:12.164Z,5.33
2018-09-29T17:42:16.024Z,5.23
2018-09-29T17:46:20.180Z,4.87
2018-09-29T17:50:24.084Z,8.13
2018-09-29T17:54:28.699Z,6.10
2018-09-29T17:58:32.736Z,7.43
2018-09-29T18:02:36.398Z,7.73
2018-09-29T18:06:40.195Z,8.40
2018-09-29T18:10:43.975Z,16.57
2018-09-29T18:14:48.150Z,9.23
2018-09-29T18:18:51.894Z,8.13
2018-09-29T18:22:55.773Z,7.60
2018-09-29T18:27:00.038Z,14.90
2018-09-29T18:31:03.868Z,10.17
2018-09-29T18:35:07.639Z,10.63
2018-09-29T18:39:11.634Z,11.13
2018-09-29T18:43:15.426Z,11.30
2018-09-29T18:47:19.476Z,11.57
2018-09-29T18:51:23.206Z,10.73
2018-09-29T18:55:27.007Z,11.20
2018-09-29T18:59:30.700Z,11.20
2018-09-29T19:03:34.476Z,14.50
2018-09-29T19:07:38.358Z,11.50
2018-09-29T19:11:43.173Z,10.53
2018-09-29T19:15:46.894Z,11.90
2018-09-29T19:19:50.601Z,9.83
2018-09-29T19:23:54.441Z,9.40
2018-09-29T19:27:58.120Z,10.10
2018-09-29T19:32:01.821Z,8.77
2018-09-29T19:36:05.590Z,9.53
2018-09-29T19:40:09.652Z,11.50
2018-09-29T19:44:13.386Z,10.47
2018-09-29T19:48:17.627Z,12.77
2018-09-29T19:52:21.342Z,8.30
2018-09-29T19:56:25.093Z,12.17
2018-09-29T20:00:28.864Z,12.20
2018-09-29T20:04:32.572Z,20.67
2018-09-29T20:08:37.358Z,10.47
2018-09-29T20:12:41.075Z,13.17
2018-09-29T20:16:45.200Z,12.77
2018-09-29T20:20:48.834Z,11.10
2018-09-29T20:24:52.506Z,14.43
2018-09-29T20:28:56.369Z,12.27
2018-09-29T20:33:00.078Z,16.60
2018-09-29T20:37:03.804Z,13.37
2018-09-29T20:41:07.649Z,13.37
2018-09-29T20:45:11.466Z,12.33
2018-09-29T20:49:15.246Z,11.13
2018-09-29T20:53:18.929Z,12.00
2018-09-29T20:57:22.722Z,12.63
2018-09-29T21:01:26.539Z,10.10
2018-09-29T21:05:30.269Z,13.17
2018-09-29T21:09:34.295Z,13.83
2018-09-29T21:13:38.148Z,11.33
2018-09-29T21:17:41.846Z,22.50
2018-09-29T21:21:46.019Z,18.90
2018-09-29T21:25:49.745Z,15.27
2018-09-29T21:29:56.016Z,14.90
2018-09-29T21:33:59.674Z,15.10
2018-09-29T21:38:03.455Z,16.57
2018-09-29T21:42:07.260Z,11.37
2018-09-29T21:46:11.226Z,15.27
2018-09-29T21:50:16.561Z,19.37
2018-09-29T21:54:20.347Z,17.73
2018-09-29T21:58:24.133Z,14.97
2018-09-29T22:02:27.959Z,14.03
2018-09-29T22:06:31.796Z,19.13
2018-09-29T22:10:35.559Z,16.30
2018-09-29T22:14:39.311Z,12.80
2018-09-29T22:18:43.649Z,14.67
2018-09-29T22:22:58.756Z,13.33
2018-09-29T22:27:02.928Z,13.87
2018-09-29T22:31:07.189Z,12.40
2018-09-29T22:35:11.480Z,11.77
2018-09-29T22:39:15.743Z,14.03
2018-09-29T22:43:20.071Z,12.47
2018-09-29T22:47:24.318Z,15.57
2018-09-29T22:51:28.443Z,16.37
2018-09-29T22:55:32.527Z,14.67
2018-09-29T22:59:36.807Z,12.40
2018-09-29T23:03:41.495Z,12.47
2018-09-29T23:07:46.322Z,17.50
2018-09-29T23:11:50.527Z,14.43
2018-09-29T23:15:54.765Z,14.10
2018-09-29T23:19:59.091Z,19.83
2018-09-29T23:24:03.295Z,19.60
2018-09-29T23:28:07.607Z,11.43
2018-09-29T23:32:12.195Z,11.37
2018-09-29T23:36:19.209Z,9.77
2018-09-29T23:40:23.452Z,11.70
2018-09-29T23:44:27.599Z,12.97
2018-09-29T23:48:31.769Z,13.57
2018-09-29T23:52:36.049Z,12.57
2018-09-29T23:56:41.152Z,12.83
